sensor_id;sensor_type;location;lat;lon;timestamp;P1;durP1;ratioP1;P2;durP2;ratioP2
84140;SDS011;74257;52.540;13.416;2024-01-11T00:00:31;10.65;;;6.90;;
84140;SDS011;74257;52.540;13.416;2024-01-11T00:03:16;10.07;;;6.55;;
84140;SDS011;74257;52.540;13.416;2024-01-11T00:05:42;10.57;;;6.57;;
84140;SDS011;74257;52.540;13.416;2024-01-11T00:08:08;10.82;;;6.32;;
84140;SDS011;74257;52.540;13.416;2024-01-11T00:10:36;9.98;;;6.13;;
84140;SDS011;74257;52.540;13.416;2024-01-11T00:13:01;10.23;;;6.78;;
84140;SDS011;74257;52.540;13.416;2024-01-11T00:15:27;9.18;;;6.35;;
84140;SDS011;74257;52.540;13.416;2024-01-11T00:17:53;10.48;;;6.80;;
84140;SDS011;74257;52.540;13.416;2024-01-11T00:20:19;10.45;;;6.57;;
84140;SDS011;74257;52.540;13.416;2024-01-11T00:22:45;9.52;;;6.00;;
84140;SDS011;74257;52.540;13.416;2024-01-11T00:25:11;10.40;;;6.65;;
84140;SDS011;74257;52.540;13.416;2024-01-11T00:27:36;9.95;;;6.05;;
84140;SDS011;74257;52.540;13.416;2024-01-11T00:30:02;9.50;;;6.57;;
84140;SDS011;74257;52.540;13.416;2024-01-11T00:32:29;10.75;;;6.20;;
84140;SDS011;74257;52.540;13.416;2024-01-11T00:34:55;9.23;;;6.20;;
84140;SDS011;74257;52.540;13.416;2024-01-11T00:37:21;10.02;;;6.47;;
84140;SDS011;74257;52.540;13.416;2024-01-11T00:39:46;9.32;;;6.28;;
84140;SDS011;74257;52.540;13.416;2024-01-11T00:42:12;9.90;;;6.28;;
84140;SDS011;74257;52.540;13.416;2024-01-11T00:44:38;9.50;;;6.60;;
84140;SDS011;74257;52.540;13.416;2024-01-11T00:47:04;9.55;;;6.43;;
84140;SDS011;74257;52.540;13.416;2024-01-11T00:49:30;11.13;;;6.10;;
84140;SDS011;74257;52.540;13.416;2024-01-11T00:51:56;9.45;;;6.47;;
84140;SDS011;74257;52.540;13.416;2024-01-11T00:54:22;10.40;;;6.70;;
84140;SDS011;74257;52.540;13.416;2024-01-11T00:56:49;9.63;;;5.90;;
84140;SDS011;74257;52.540;13.416;2024-01-11T00:59:14;10.75;;;6.32;;
84140;SDS011;74257;52.540;13.416;2024-01-11T01:01:40;9.70;;;6.28;;
84140;SDS011;74257;52.540;13.416;2024-01-11T01:04:14;9.48;;;5.80;;
84140;SDS011;74257;52.540;13.416;2024-01-11T01:06:40;9.65;;;5.95;;
84140;SDS011;74257;52.540;13.416;2024-01-11T01:09:07;9.40;;;5.95;;
84140;SDS011;74257;52.540;13.416;2024-01-11T01:11:33;9.07;;;5.82;;
84140;SDS011;74257;52.540;13.416;2024-01-11T01:13:59;8.70;;;6.20;;
84140;SDS011;74257;52.540;13.416;2024-01-11T01:16:24;11.05;;;6.20;;
84140;SDS011;74257;52.540;13.416;2024-01-11T01:18:50;8.27;;;5.53;;
84140;SDS011;74257;52.540;13.416;2024-01-11T01:21:16;9.98;;;6.07;;
84140;SDS011;74257;52.540;13.416;2024-01-11T01:23:42;10.43;;;5.82;;
84140;SDS011;74257;52.540;13.416;2024-01-11T01:26:07;8.95;;;5.85;;
84140;SDS011;74257;52.540;13.416;2024-01-11T01:28:33;9.20;;;5.63;;
84140;SDS011;74257;52.540;13.416;2024-01-11T01:30:59;8.90;;;5.60;;
84140;SDS011;74257;52.540;13.416;2024-01-11T01:33:25;8.50;;;5.57;;
84140;SDS011;74257;52.540;13.416;2024-01-11T01:35:51;9.45;;;5.75;;
84140;SDS011;74257;52.540;13.416;2024-01-11T01:38:17;8.60;;;5.53;;
84140;SDS011;74257;52.540;13.416;2024-01-11T01:40:43;9.85;;;5.60;;
84140;SDS011;74257;52.540;13.416;2024-01-11T01:43:09;8.35;;;5.47;;
84140;SDS011;74257;52.540;13.416;2024-01-11T01:45:35;7.85;;;5.60;;
84140;SDS011;74257;52.540;13.416;2024-01-11T01:48:01;7.63;;;5.57;;
84140;SDS011;74257;52.540;13.416;2024-01-11T01:50:27;8.27;;;5.35;;
84140;SDS011;74257;52.540;13.416;2024-01-11T01:52:54;17.52;;;5.55;;
84140;SDS011;74257;52.540;13.416;2024-01-11T01:55:21;9.15;;;5.22;;
84140;SDS011;74257;52.540;13.416;2024-01-11T01:57:47;7.93;;;5.15;;
84140;SDS011;74257;52.540;13.416;2024-01-11T02:00:15;8.38;;;5.15;;
84140;SDS011;74257;52.540;13.416;2024-01-11T02:02:44;8.18;;;5.32;;
84140;SDS011;74257;52.540;13.416;2024-01-11T02:05:13;7.93;;;5.03;;
84140;SDS011;74257;52.540;13.416;2024-01-11T02:07:41;9.02;;;5.72;;
84140;SDS011;74257;52.540;13.416;2024-01-11T02:10:07;8.85;;;5.28;;
84140;SDS011;74257;52.540;13.416;2024-01-11T02:12:35;8.32;;;4.95;;
84140;SDS011;74257;52.540;13.416;2024-01-11T02:15:03;7.70;;;5.07;;
84140;SDS011;74257;52.540;13.416;2024-01-11T02:17:30;8.95;;;5.28;;
84140;SDS011;74257;52.540;13.416;2024-01-11T02:19:56;10.57;;;5.78;;
84140;SDS011;74257;52.540;13.416;2024-01-11T02:22:23;7.07;;;5.03;;
84140;SDS011;74257;52.540;13.416;2024-01-11T02:24:53;8.15;;;5.43;;
84140;SDS011;74257;52.540;13.416;2024-01-11T02:27:19;8.15;;;5.05;;
84140;SDS011;74257;52.540;13.416;2024-01-11T02:29:45;8.73;;;4.95;;
84140;SDS011;74257;52.540;13.416;2024-01-11T02:32:10;7.50;;;4.93;;
84140;SDS011;74257;52.540;13.416;2024-01-11T02:34:37;7.78;;;5.30;;
84140;SDS011;74257;52.540;13.416;2024-01-11T02:37:04;7.43;;;5.15;;
84140;SDS011;74257;52.540;13.416;2024-01-11T02:39:31;8.80;;;4.85;;
84140;SDS011;74257;52.540;13.416;2024-01-11T02:41:57;8.88;;;4.75;;
84140;SDS011;74257;52.540;13.416;2024-01-11T02:44:23;7.93;;;5.65;;
84140;SDS011;74257;52.540;13.416;2024-01-11T02:46:50;8.65;;;4.82;;
84140;SDS011;74257;52.540;13.416;2024-01-11T02:49:15;8.35;;;4.85;;
84140;SDS011;74257;52.540;13.416;2024-01-11T02:51:41;8.13;;;5.03;;
84140;SDS011;74257;52.540;13.416;2024-01-11T02:54:07;8.30;;;5.25;;
84140;SDS011;74257;52.540;13.416;2024-01-11T02:56:33;7.78;;;4.88;;
84140;SDS011;74257;52.540;13.416;2024-01-11T02:58:59;7.03;;;4.65;;
84140;SDS011;74257;52.540;13.416;2024-01-11T03:01:25;6.95;;;4.72;;
84140;SDS011;74257;52.540;13.416;2024-01-11T03:03:51;7.03;;;5.00;;
84140;SDS011;74257;52.540;13.416;2024-01-11T03:06:17;6.78;;;4.53;;
84140;SDS011;74257;52.540;13.416;2024-01-11T03:08:47;6.85;;;4.93;;
84140;SDS011;74257;52.540;13.416;2024-01-11T03:11:14;7.07;;;4.63;;
84140;SDS011;74257;52.540;13.416;2024-01-11T03:13:41;7.03;;;4.70;;
84140;SDS011;74257;52.540;13.416;2024-01-11T03:16:08;8.60;;;5.15;;
84140;SDS011;74257;52.540;13.416;2024-01-11T03:18:33;8.55;;;4.72;;
84140;SDS011;74257;52.540;13.416;2024-01-11T03:20:59;5.97;;;4.43;;
84140;SDS011;74257;52.540;13.416;2024-01-11T03:23:25;9.27;;;4.88;;
84140;SDS011;74257;52.540;13.416;2024-01-11T03:25:51;6.30;;;4.40;;
84140;SDS011;74257;52.540;13.416;2024-01-11T03:28:17;7.20;;;4.95;;
84140;SDS011;74257;52.540;13.416;2024-01-11T03:30:43;8.18;;;5.13;;
84140;SDS011;74257;52.540;13.416;2024-01-11T03:33:08;5.68;;;4.18;;
84140;SDS011;74257;52.540;13.416;2024-01-11T03:35:34;6.97;;;4.90;;
84140;SDS011;74257;52.540;13.416;2024-01-11T03:38:00;6.18;;;4.43;;
84140;SDS011;74257;52.540;13.416;2024-01-11T03:40:26;6.88;;;4.38;;
84140;SDS011;74257;52.540;13.416;2024-01-11T03:42:52;6.82;;;4.75;;
84140;SDS011;74257;52.540;13.416;2024-01-11T03:45:18;6.82;;;4.38;;
84140;SDS011;74257;52.540;13.416;2024-01-11T03:47:47;7.97;;;5.13;;
84140;SDS011;74257;52.540;13.416;2024-01-11T03:50:13;6.60;;;4.50;;
84140;SDS011;74257;52.540;13.416;2024-01-11T03:52:39;7.88;;;4.60;;
84140;SDS011;74257;52.540;13.416;2024-01-11T03:55:05;7.18;;;4.43;;
84140;SDS011;74257;52.540;13.416;2024-01-11T03:57:31;7.90;;;4.10;;
84140;SDS011;74257;52.540;13.416;2024-01-11T03:59:57;5.97;;;3.97;;
84140;SDS011;74257;52.540;13.416;2024-01-11T04:02:24;8.13;;;4.63;;
84140;SDS011;74257;52.540;13.416;2024-01-11T04:04:50;6.47;;;4.28;;
84140;SDS011;74257;52.540;13.416;2024-01-11T04:07:16;5.60;;;3.90;;
84140;SDS011;74257;52.540;13.416;2024-01-11T04:09:42;6.75;;;4.45;;
84140;SDS011;74257;52.540;13.416;2024-01-11T04:12:08;7.10;;;4.65;;
84140;SDS011;74257;52.540;13.416;2024-01-11T04:14:37;8.45;;;4.00;;
84140;SDS011;74257;52.540;13.416;2024-01-11T04:17:04;5.70;;;4.15;;
84140;SDS011;74257;52.540;13.416;2024-01-11T04:19:30;6.68;;;4.72;;
84140;SDS011;74257;52.540;13.416;2024-01-11T04:21:56;7.32;;;4.70;;
84140;SDS011;74257;52.540;13.416;2024-01-11T04:24:22;5.53;;;4.30;;
84140;SDS011;74257;52.540;13.416;2024-01-11T04:26:48;6.38;;;3.95;;
84140;SDS011;74257;52.540;13.416;2024-01-11T04:29:13;6.68;;;4.15;;
84140;SDS011;74257;52.540;13.416;2024-01-11T04:31:39;6.47;;;4.18;;
84140;SDS011;74257;52.540;13.416;2024-01-11T04:34:05;6.85;;;4.25;;
84140;SDS011;74257;52.540;13.416;2024-01-11T04:36:31;6.70;;;4.30;;
84140;SDS011;74257;52.540;13.416;2024-01-11T04:38:56;6.60;;;4.25;;
84140;SDS011;74257;52.540;13.416;2024-01-11T04:41:22;6.05;;;4.03;;
84140;SDS011;74257;52.540;13.416;2024-01-11T04:43:48;5.88;;;4.03;;
84140;SDS011;74257;52.540;13.416;2024-01-11T04:46:18;6.57;;;3.58;;
84140;SDS011;74257;52.540;13.416;2024-01-11T04:48:45;6.75;;;4.32;;
84140;SDS011;74257;52.540;13.416;2024-01-11T04:51:12;6.15;;;4.10;;
84140;SDS011;74257;52.540;13.416;2024-01-11T04:53:38;6.22;;;4.35;;
84140;SDS011;74257;52.540;13.416;2024-01-11T04:56:08;6.13;;;3.88;;
84140;SDS011;74257;52.540;13.416;2024-01-11T04:58:35;6.60;;;4.43;;
84140;SDS011;74257;52.540;13.416;2024-01-11T05:01:04;6.10;;;3.80;;
84140;SDS011;74257;52.540;13.416;2024-01-11T05:03:30;6.70;;;3.85;;
84140;SDS011;74257;52.540;13.416;2024-01-11T05:06:00;6.20;;;4.00;;
84140;SDS011;74257;52.540;13.416;2024-01-11T05:08:26;7.15;;;4.03;;
84140;SDS011;74257;52.540;13.416;2024-01-11T05:10:53;7.82;;;4.20;;
84140;SDS011;74257;52.540;13.416;2024-01-11T05:13:19;5.70;;;3.75;;
84140;SDS011;74257;52.540;13.416;2024-01-11T05:15:45;5.55;;;3.78;;
84140;SDS011;74257;52.540;13.416;2024-01-11T05:18:11;7.05;;;3.67;;
84140;SDS011;74257;52.540;13.416;2024-01-11T05:20:37;6.82;;;4.03;;
84140;SDS011;74257;52.540;13.416;2024-01-11T05:23:03;5.80;;;4.10;;
84140;SDS011;74257;52.540;13.416;2024-01-11T05:25:30;5.30;;;3.80;;
84140;SDS011;74257;52.540;13.416;2024-01-11T05:27:59;5.80;;;3.47;;
84140;SDS011;74257;52.540;13.416;2024-01-11T05:30:26;5.85;;;3.55;;
84140;SDS011;74257;52.540;13.416;2024-01-11T05:32:52;6.28;;;3.60;;
84140;SDS011;74257;52.540;13.416;2024-01-11T05:35:18;5.03;;;3.60;;
84140;SDS011;74257;52.540;13.416;2024-01-11T05:37:44;5.85;;;3.70;;
84140;SDS011;74257;52.540;13.416;2024-01-11T05:40:10;6.70;;;3.80;;
84140;SDS011;74257;52.540;13.416;2024-01-11T05:42:36;5.35;;;3.75;;
84140;SDS011;74257;52.540;13.416;2024-01-11T05:45:04;7.07;;;4.10;;
84140;SDS011;74257;52.540;13.416;2024-01-11T05:47:30;6.63;;;3.67;;
84140;SDS011;74257;52.540;13.416;2024-01-11T05:49:56;5.70;;;3.88;;
84140;SDS011;74257;52.540;13.416;2024-01-11T05:52:22;6.57;;;4.20;;
84140;SDS011;74257;52.540;13.416;2024-01-11T05:54:48;6.57;;;4.05;;
84140;SDS011;74257;52.540;13.416;2024-01-11T05:57:14;5.88;;;3.88;;
84140;SDS011;74257;52.540;13.416;2024-01-11T05:59:43;6.80;;;3.72;;
84140;SDS011;74257;52.540;13.416;2024-01-11T06:02:10;6.82;;;4.30;;
84140;SDS011;74257;52.540;13.416;2024-01-11T06:04:36;6.35;;;4.22;;
84140;SDS011;74257;52.540;13.416;2024-01-11T06:07:02;7.38;;;4.15;;
84140;SDS011;74257;52.540;13.416;2024-01-11T06:09:28;6.90;;;4.38;;
84140;SDS011;74257;52.540;13.416;2024-01-11T06:11:54;6.80;;;4.13;;
84140;SDS011;74257;52.540;13.416;2024-01-11T06:14:20;6.63;;;4.00;;
84140;SDS011;74257;52.540;13.416;2024-01-11T06:16:46;7.85;;;4.13;;
84140;SDS011;74257;52.540;13.416;2024-01-11T06:19:11;7.90;;;3.90;;
84140;SDS011;74257;52.540;13.416;2024-01-11T06:21:37;7.82;;;3.78;;
84140;SDS011;74257;52.540;13.416;2024-01-11T06:24:03;9.02;;;4.00;;
84140;SDS011;74257;52.540;13.416;2024-01-11T06:26:29;6.68;;;3.97;;
84140;SDS011;74257;52.540;13.416;2024-01-11T06:28:55;7.20;;;3.75;;
84140;SDS011;74257;52.540;13.416;2024-01-11T06:31:21;6.63;;;4.05;;
84140;SDS011;74257;52.540;13.416;2024-01-11T06:33:47;7.53;;;3.92;;
84140;SDS011;74257;52.540;13.416;2024-01-11T06:36:13;10.27;;;4.55;;
84140;SDS011;74257;52.540;13.416;2024-01-11T06:38:39;9.82;;;4.60;;
84140;SDS011;74257;52.540;13.416;2024-01-11T06:41:04;8.68;;;4.18;;
84140;SDS011;74257;52.540;13.416;2024-01-11T06:43:30;10.35;;;3.85;;
84140;SDS011;74257;52.540;13.416;2024-01-11T06:45:56;7.80;;;3.97;;
84140;SDS011;74257;52.540;13.416;2024-01-11T06:48:28;11.63;;;3.80;;
84140;SDS011;74257;52.540;13.416;2024-01-11T06:50:53;8.57;;;3.55;;
84140;SDS011;74257;52.540;13.416;2024-01-11T06:53:20;8.35;;;3.97;;
84140;SDS011;74257;52.540;13.416;2024-01-11T06:55:46;9.77;;;3.55;;
84140;SDS011;74257;52.540;13.416;2024-01-11T06:58:13;14.32;;;4.03;;
84140;SDS011;74257;52.540;13.416;2024-01-11T07:00:40;9.40;;;3.85;;
84140;SDS011;74257;52.540;13.416;2024-01-11T07:03:09;11.85;;;4.00;;
84140;SDS011;74257;52.540;13.416;2024-01-11T07:05:36;11.13;;;4.88;;
84140;SDS011;74257;52.540;13.416;2024-01-11T07:08:02;11.10;;;4.10;;
84140;SDS011;74257;52.540;13.416;2024-01-11T07:10:28;8.82;;;4.28;;
84140;SDS011;74257;52.540;13.416;2024-01-11T07:12:55;10.23;;;4.05;;
84140;SDS011;74257;52.540;13.416;2024-01-11T07:15:21;8.05;;;3.78;;
84140;SDS011;74257;52.540;13.416;2024-01-11T07:17:46;6.47;;;3.45;;
84140;SDS011;74257;52.540;13.416;2024-01-11T07:20:12;11.10;;;4.00;;
84140;SDS011;74257;52.540;13.416;2024-01-11T07:22:40;10.70;;;3.95;;
84140;SDS011;74257;52.540;13.416;2024-01-11T07:25:06;9.02;;;4.47;;
84140;SDS011;74257;52.540;13.416;2024-01-11T07:27:32;8.18;;;4.28;;
84140;SDS011;74257;52.540;13.416;2024-01-11T07:29:58;11.60;;;4.15;;
84140;SDS011;74257;52.540;13.416;2024-01-11T07:32:24;11.20;;;4.10;;
84140;SDS011;74257;52.540;13.416;2024-01-11T07:34:50;6.55;;;3.50;;
84140;SDS011;74257;52.540;13.416;2024-01-11T07:37:16;8.60;;;3.55;;
84140;SDS011;74257;52.540;13.416;2024-01-11T07:39:41;7.25;;;3.78;;
84140;SDS011;74257;52.540;13.416;2024-01-11T07:42:07;8.32;;;3.90;;
84140;SDS011;74257;52.540;13.416;2024-01-11T07:44:33;7.25;;;3.70;;
84140;SDS011;74257;52.540;13.416;2024-01-11T07:46:59;6.32;;;3.67;;
84140;SDS011;74257;52.540;13.416;2024-01-11T07:49:25;10.25;;;4.78;;
84140;SDS011;74257;52.540;13.416;2024-01-11T07:51:50;6.97;;;3.67;;
84140;SDS011;74257;52.540;13.416;2024-01-11T07:54:16;7.40;;;3.38;;
84140;SDS011;74257;52.540;13.416;2024-01-11T07:56:42;11.90;;;4.28;;
84140;SDS011;74257;52.540;13.416;2024-01-11T07:59:08;5.97;;;2.92;;
84140;SDS011;74257;52.540;13.416;2024-01-11T08:01:39;8.20;;;3.15;;
84140;SDS011;74257;52.540;13.416;2024-01-11T08:04:05;7.38;;;3.33;;
84140;SDS011;74257;52.540;13.416;2024-01-11T08:06:31;6.28;;;3.38;;
84140;SDS011;74257;52.540;13.416;2024-01-11T08:08:57;5.18;;;3.10;;
84140;SDS011;74257;52.540;13.416;2024-01-11T08:11:23;9.15;;;3.47;;
84140;SDS011;74257;52.540;13.416;2024-01-11T08:13:49;12.13;;;3.53;;
84140;SDS011;74257;52.540;13.416;2024-01-11T08:16:18;5.75;;;3.75;;
84140;SDS011;74257;52.540;13.416;2024-01-11T08:18:44;7.55;;;2.90;;
84140;SDS011;74257;52.540;13.416;2024-01-11T08:21:11;7.05;;;3.28;;
84140;SDS011;74257;52.540;13.416;2024-01-11T08:23:39;6.38;;;3.38;;
84140;SDS011;74257;52.540;13.416;2024-01-11T08:26:14;6.45;;;3.17;;
84140;SDS011;74257;52.540;13.416;2024-01-11T08:28:40;5.80;;;3.00;;
84140;SDS011;74257;52.540;13.416;2024-01-11T08:31:07;6.25;;;3.40;;
84140;SDS011;74257;52.540;13.416;2024-01-11T08:33:32;7.75;;;3.40;;
84140;SDS011;74257;52.540;13.416;2024-01-11T08:35:58;10.02;;;3.72;;
84140;SDS011;74257;52.540;13.416;2024-01-11T08:38:24;12.00;;;3.38;;
84140;SDS011;74257;52.540;13.416;2024-01-11T08:40:50;9.07;;;3.13;;
84140;SDS011;74257;52.540;13.416;2024-01-11T08:43:16;7.32;;;3.47;;
84140;SDS011;74257;52.540;13.416;2024-01-11T08:45:42;8.85;;;3.30;;
84140;SDS011;74257;52.540;13.416;2024-01-11T08:48:12;5.10;;;3.15;;
84140;SDS011;74257;52.540;13.416;2024-01-11T08:50:38;8.45;;;3.47;;
84140;SDS011;74257;52.540;13.416;2024-01-11T08:53:04;14.18;;;3.42;;
84140;SDS011;74257;52.540;13.416;2024-01-11T08:55:30;6.82;;;3.22;;
84140;SDS011;74257;52.540;13.416;2024-01-11T08:57:56;6.53;;;2.85;;
84140;SDS011;74257;52.540;13.416;2024-01-11T09:00:22;6.30;;;3.30;;
84140;SDS011;74257;52.540;13.416;2024-01-11T09:02:47;7.93;;;3.28;;
84140;SDS011;74257;52.540;13.416;2024-01-11T09:05:14;6.97;;;3.40;;
84140;SDS011;74257;52.540;13.416;2024-01-11T09:07:40;8.07;;;3.30;;
84140;SDS011;74257;52.540;13.416;2024-01-11T09:10:06;5.05;;;3.22;;
84140;SDS011;74257;52.540;13.416;2024-01-11T09:12:38;5.05;;;3.20;;
84140;SDS011;74257;52.540;13.416;2024-01-11T09:15:04;6.60;;;3.35;;
84140;SDS011;74257;52.540;13.416;2024-01-11T09:17:31;6.22;;;3.65;;
84140;SDS011;74257;52.540;13.416;2024-01-11T09:19:58;7.32;;;3.20;;
84140;SDS011;74257;52.540;13.416;2024-01-11T09:22:23;5.40;;;2.78;;
84140;SDS011;74257;52.540;13.416;2024-01-11T09:24:49;4.90;;;2.80;;
84140;SDS011;74257;52.540;13.416;2024-01-11T09:27:15;4.82;;;3.00;;
84140;SDS011;74257;52.540;13.416;2024-01-11T09:29:42;4.82;;;3.00;;
84140;SDS011;74257;52.540;13.416;2024-01-11T09:32:11;5.05;;;2.90;;
84140;SDS011;74257;52.540;13.416;2024-01-11T09:34:38;5.95;;;3.00;;
84140;SDS011;74257;52.540;13.416;2024-01-11T09:37:03;5.65;;;2.95;;
84140;SDS011;74257;52.540;13.416;2024-01-11T09:39:29;6.03;;;2.72;;
84140;SDS011;74257;52.540;13.416;2024-01-11T09:42:08;5.18;;;2.80;;
84140;SDS011;74257;52.540;13.416;2024-01-11T09:44:35;5.82;;;2.70;;
84140;SDS011;74257;52.540;13.416;2024-01-11T09:47:02;4.35;;;2.90;;
84140;SDS011;74257;52.540;13.416;2024-01-11T09:49:31;5.22;;;3.08;;
84140;SDS011;74257;52.540;13.416;2024-01-11T09:52:00;5.93;;;3.47;;
84140;SDS011;74257;52.540;13.416;2024-01-11T09:54:27;5.35;;;2.90;;
84140;SDS011;74257;52.540;13.416;2024-01-11T09:56:53;4.72;;;3.00;;
84140;SDS011;74257;52.540;13.416;2024-01-11T09:59:21;5.22;;;2.55;;
84140;SDS011;74257;52.540;13.416;2024-01-11T10:01:49;4.95;;;3.17;;
84140;SDS011;74257;52.540;13.416;2024-01-11T10:04:15;5.97;;;3.28;;
84140;SDS011;74257;52.540;13.416;2024-01-11T10:06:41;5.53;;;3.05;;
84140;SDS011;74257;52.540;13.416;2024-01-11T10:09:08;5.20;;;2.50;;
84140;SDS011;74257;52.540;13.416;2024-01-11T10:11:34;5.75;;;3.05;;
84140;SDS011;74257;52.540;13.416;2024-01-11T10:14:01;4.70;;;2.95;;
84140;SDS011;74257;52.540;13.416;2024-01-11T10:16:27;4.68;;;2.92;;
84140;SDS011;74257;52.540;13.416;2024-01-11T10:18:54;4.90;;;3.13;;
84140;SDS011;74257;52.540;13.416;2024-01-11T10:21:21;5.20;;;2.72;;
84140;SDS011;74257;52.540;13.416;2024-01-11T10:23:48;6.00;;;3.00;;
84140;SDS011;74257;52.540;13.416;2024-01-11T10:26:15;6.78;;;3.70;;
84140;SDS011;74257;52.540;13.416;2024-01-11T10:28:45;5.45;;;3.00;;
84140;SDS011;74257;52.540;13.416;2024-01-11T10:31:11;4.00;;;2.90;;
84140;SDS011;74257;52.540;13.416;2024-01-11T10:33:38;5.93;;;2.78;;
84140;SDS011;74257;52.540;13.416;2024-01-11T10:36:04;5.88;;;3.15;;
84140;SDS011;74257;52.540;13.416;2024-01-11T10:38:30;10.60;;;4.25;;
84140;SDS011;74257;52.540;13.416;2024-01-11T10:40:59;10.23;;;4.05;;
84140;SDS011;74257;52.540;13.416;2024-01-11T10:43:26;14.60;;;6.68;;
84140;SDS011;74257;52.540;13.416;2024-01-11T10:45:52;12.90;;;4.93;;
84140;SDS011;74257;52.540;13.416;2024-01-11T10:48:24;12.52;;;5.47;;
84140;SDS011;74257;52.540;13.416;2024-01-11T10:50:54;15.13;;;5.93;;
84140;SDS011;74257;52.540;13.416;2024-01-11T10:56:09;14.40;;;5.80;;
84140;SDS011;74257;52.540;13.416;2024-01-11T10:58:38;16.98;;;7.38;;
84140;SDS011;74257;52.540;13.416;2024-01-11T11:01:05;22.42;;;8.75;;
84140;SDS011;74257;52.540;13.416;2024-01-11T11:03:33;26.25;;;8.60;;
84140;SDS011;74257;52.540;13.416;2024-01-11T11:06:00;19.65;;;8.80;;
84140;SDS011;74257;52.540;13.416;2024-01-11T11:08:27;20.77;;;8.00;;
84140;SDS011;74257;52.540;13.416;2024-01-11T11:10:57;25.20;;;7.70;;
84140;SDS011;74257;52.540;13.416;2024-01-11T11:13:24;19.15;;;8.63;;
84140;SDS011;74257;52.540;13.416;2024-01-11T11:15:50;20.02;;;8.02;;
84140;SDS011;74257;52.540;13.416;2024-01-11T11:18:18;18.38;;;7.93;;
84140;SDS011;74257;52.540;13.416;2024-01-11T11:20:46;21.70;;;7.85;;
84140;SDS011;74257;52.540;13.416;2024-01-11T11:23:14;20.52;;;8.75;;
84140;SDS011;74257;52.540;13.416;2024-01-11T11:25:42;19.92;;;9.70;;
84140;SDS011;74257;52.540;13.416;2024-01-11T11:30:38;21.98;;;8.30;;
84140;SDS011;74257;52.540;13.416;2024-01-11T11:33:16;19.27;;;8.10;;
84140;SDS011;74257;52.540;13.416;2024-01-11T11:35:43;18.98;;;8.00;;
84140;SDS011;74257;52.540;13.416;2024-01-11T11:38:16;16.65;;;8.25;;
84140;SDS011;74257;52.540;13.416;2024-01-11T11:40:44;15.00;;;8.23;;
84140;SDS011;74257;52.540;13.416;2024-01-11T11:43:13;17.85;;;7.78;;
84140;SDS011;74257;52.540;13.416;2024-01-11T11:45:41;19.13;;;8.50;;
84140;SDS011;74257;52.540;13.416;2024-01-11T11:48:47;20.55;;;8.50;;
84140;SDS011;74257;52.540;13.416;2024-01-11T11:51:11;21.52;;;8.07;;
84140;SDS011;74257;52.540;13.416;2024-01-11T11:53:39;20.73;;;8.52;;
84140;SDS011;74257;52.540;13.416;2024-01-11T11:56:06;23.58;;;9.05;;
84140;SDS011;74257;52.540;13.416;2024-01-11T12:01:01;18.90;;;7.65;;
84140;SDS011;74257;52.540;13.416;2024-01-11T12:03:34;18.13;;;8.20;;
84140;SDS011;74257;52.540;13.416;2024-01-11T12:06:02;20.25;;;8.52;;
84140;SDS011;74257;52.540;13.416;2024-01-11T12:08:32;19.42;;;8.52;;
84140;SDS011;74257;52.540;13.416;2024-01-11T12:10:58;17.45;;;7.72;;
84140;SDS011;74257;52.540;13.416;2024-01-11T12:13:25;16.48;;;8.45;;
84140;SDS011;74257;52.540;13.416;2024-01-11T12:15:51;19.42;;;8.27;;
84140;SDS011;74257;52.540;13.416;2024-01-11T12:18:17;22.20;;;8.82;;
84140;SDS011;74257;52.540;13.416;2024-01-11T12:20:44;20.60;;;7.95;;
84140;SDS011;74257;52.540;13.416;2024-01-11T12:23:10;19.02;;;7.75;;
84140;SDS011;74257;52.540;13.416;2024-01-11T12:25:39;18.52;;;8.25;;
84140;SDS011;74257;52.540;13.416;2024-01-11T12:28:08;17.23;;;7.88;;
84140;SDS011;74257;52.540;13.416;2024-01-11T12:30:34;23.52;;;7.85;;
84140;SDS011;74257;52.540;13.416;2024-01-11T12:33:00;19.50;;;8.32;;
84140;SDS011;74257;52.540;13.416;2024-01-11T12:35:27;18.13;;;7.72;;
84140;SDS011;74257;52.540;13.416;2024-01-11T12:37:54;17.10;;;7.18;;
84140;SDS011;74257;52.540;13.416;2024-01-11T12:40:21;15.90;;;7.53;;
84140;SDS011;74257;52.540;13.416;2024-01-11T12:42:47;18.73;;;8.00;;
84140;SDS011;74257;52.540;13.416;2024-01-11T12:45:15;16.13;;;7.30;;
84140;SDS011;74257;52.540;13.416;2024-01-11T12:47:41;20.15;;;7.38;;
84140;SDS011;74257;52.540;13.416;2024-01-11T12:50:08;18.38;;;7.65;;
84140;SDS011;74257;52.540;13.416;2024-01-11T12:52:34;15.13;;;7.88;;
84140;SDS011;74257;52.540;13.416;2024-01-11T12:55:00;19.83;;;7.97;;
84140;SDS011;74257;52.540;13.416;2024-01-11T12:57:26;16.48;;;7.72;;
84140;SDS011;74257;52.540;13.416;2024-01-11T12:59:51;18.60;;;7.57;;
84140;SDS011;74257;52.540;13.416;2024-01-11T13:02:18;16.70;;;7.28;;
84140;SDS011;74257;52.540;13.416;2024-01-11T13:04:45;16.23;;;7.45;;
84140;SDS011;74257;52.540;13.416;2024-01-11T13:07:13;18.40;;;7.35;;
84140;SDS011;74257;52.540;13.416;2024-01-11T13:09:41;15.15;;;7.28;;
84140;SDS011;74257;52.540;13.416;2024-01-11T13:12:07;16.08;;;7.45;;
84140;SDS011;74257;52.540;13.416;2024-01-11T13:14:33;16.55;;;7.63;;
84140;SDS011;74257;52.540;13.416;2024-01-11T13:16:59;18.13;;;7.80;;
84140;SDS011;74257;52.540;13.416;2024-01-11T13:19:24;14.73;;;7.38;;
84140;SDS011;74257;52.540;13.416;2024-01-11T13:21:50;16.10;;;6.93;;
84140;SDS011;74257;52.540;13.416;2024-01-11T13:24:17;16.23;;;8.20;;
84140;SDS011;74257;52.540;13.416;2024-01-11T13:26:43;14.70;;;7.40;;
84140;SDS011;74257;52.540;13.416;2024-01-11T13:29:09;15.18;;;7.15;;
84140;SDS011;74257;52.540;13.416;2024-01-11T13:31:36;16.00;;;7.47;;
84140;SDS011;74257;52.540;13.416;2024-01-11T13:34:02;14.55;;;7.40;;
84140;SDS011;74257;52.540;13.416;2024-01-11T13:36:29;14.75;;;7.00;;
84140;SDS011;74257;52.540;13.416;2024-01-11T13:38:54;13.80;;;6.90;;
84140;SDS011;74257;52.540;13.416;2024-01-11T13:41:20;15.18;;;6.35;;
84140;SDS011;74257;52.540;13.416;2024-01-11T13:43:46;15.05;;;7.20;;
84140;SDS011;74257;52.540;13.416;2024-01-11T13:46:12;14.90;;;6.93;;
84140;SDS011;74257;52.540;13.416;2024-01-11T13:48:41;12.90;;;6.28;;
84140;SDS011;74257;52.540;13.416;2024-01-11T13:51:07;12.88;;;6.47;;
84140;SDS011;74257;52.540;13.416;2024-01-11T13:53:35;13.63;;;6.55;;
84140;SDS011;74257;52.540;13.416;2024-01-11T13:56:01;12.65;;;6.50;;
84140;SDS011;74257;52.540;13.416;2024-01-11T13:58:27;12.45;;;6.38;;
84140;SDS011;74257;52.540;13.416;2024-01-11T14:00:53;12.93;;;6.78;;
84140;SDS011;74257;52.540;13.416;2024-01-11T14:03:18;11.45;;;6.65;;
84140;SDS011;74257;52.540;13.416;2024-01-11T14:05:45;12.05;;;5.93;;
84140;SDS011;74257;52.540;13.416;2024-01-11T14:08:10;12.93;;;6.28;;
84140;SDS011;74257;52.540;13.416;2024-01-11T14:10:37;12.95;;;7.43;;
84140;SDS011;74257;52.540;13.416;2024-01-11T14:13:02;12.52;;;5.82;;
84140;SDS011;74257;52.540;13.416;2024-01-11T14:15:29;12.85;;;6.10;;
84140;SDS011;74257;52.540;13.416;2024-01-11T14:17:56;22.00;;;5.90;;
84140;SDS011;74257;52.540;13.416;2024-01-11T14:20:22;12.68;;;6.10;;
84140;SDS011;74257;52.540;13.416;2024-01-11T14:22:48;12.48;;;5.75;;
84140;SDS011;74257;52.540;13.416;2024-01-11T14:25:15;11.88;;;5.82;;
84140;SDS011;74257;52.540;13.416;2024-01-11T14:27:41;12.07;;;6.05;;
84140;SDS011;74257;52.540;13.416;2024-01-11T14:30:07;12.18;;;5.47;;
84140;SDS011;74257;52.540;13.416;2024-01-11T14:32:34;10.75;;;6.45;;
84140;SDS011;74257;52.540;13.416;2024-01-11T14:35:00;10.70;;;5.60;;